createdAt,value
2022-11-05T00:01:29.016Z,10.30
2022-11-05T00:04:14.665Z,10.30
2022-11-05T00:07:00.904Z,10.30
2022-11-05T00:09:32.921Z,10.30
2022-11-05T00:12:26.283Z,10.20
2022-11-05T00:15:13.075Z,10.20
2022-11-05T00:17:41.975Z,10.20
2022-11-05T00:20:13.510Z,10.20
2022-11-05T00:23:20.562Z,10.20
2022-11-05T00:26:06.978Z,10.20
2022-11-05T00:28:40.914Z,10.10
2022-11-05T00:31:13.900Z,10.10
2022-11-05T00:33:44.820Z,10.10
2022-11-05T00:36:13.180Z,10.10
2022-11-05T00:38:41.091Z,10.10
2022-11-05T00:41:11.601Z,10.00
2022-11-05T00:43:58.652Z,10.00
2022-11-05T00:46:29.387Z,10.00
2022-11-05T00:49:14.860Z,10.00
2022-11-05T00:51:42.867Z,10.00
2022-11-05T00:54:11.949Z,10.00
2022-11-05T00:56:40.608Z,10.00
2022-11-05T00:59:11.271Z,10.00
2022-11-05T01:01:39.960Z,9.90
2022-11-05T01:04:10.302Z,10.00
2022-11-05T01:06:38.492Z,9.90
2022-11-05T01:09:06.468Z,9.90
2022-11-05T01:11:37.190Z,9.90
2022-11-05T01:14:07.699Z,9.90
2022-11-05T01:16:45.646Z,9.90
2022-11-05T01:19:15.167Z,9.90
2022-11-05T01:21:45.404Z,9.80
2022-11-05T01:24:15.384Z,9.80
2022-11-05T01:26:45.633Z,9.80
2022-11-05T01:29:13.948Z,9.80
2022-11-05T01:31:44.585Z,9.80
2022-11-05T01:34:14.210Z,9.70
2022-11-05T01:36:44.418Z,9.70
2022-11-05T01:39:13.310Z,9.80
2022-11-05T01:41:46.725Z,9.80
2022-11-05T01:45:12.071Z,9.70
2022-11-05T01:47:52.039Z,9.70
2022-11-05T01:50:31.356Z,9.70
2022-11-05T01:53:05.239Z,9.70
2022-11-05T01:55:38.603Z,9.70
2022-11-05T01:58:09.184Z,9.70
2022-11-05T02:00:37.841Z,9.70
2022-11-05T02:03:07.744Z,9.70
2022-11-05T02:05:39.387Z,9.70
2022-11-05T02:08:09.394Z,9.70
2022-11-05T02:10:38.361Z,9.80
2022-11-05T02:13:07.000Z,9.90
2022-11-05T02:15:45.221Z,9.90
2022-11-05T02:18:26.244Z,9.90
2022-11-05T02:22:19.359Z,9.90
2022-11-05T02:25:20.273Z,10.00
2022-11-05T02:28:22.467Z,10.00
2022-11-05T02:31:11.739Z,10.00
2022-11-05T02:33:47.482Z,10.00
2022-11-05T02:36:30.881Z,10.00
2022-11-05T02:39:25.273Z,10.10
2022-11-05T02:42:05.411Z,10.10
2022-11-05T02:44:42.118Z,10.10
2022-11-05T02:47:21.693Z,10.10
2022-11-05T02:49:56.958Z,10.20
2022-11-05T02:52:36.771Z,10.20
2022-11-05T02:55:15.601Z,10.20
2022-11-05T02:57:46.577Z,10.20
2022-11-05T03:00:42.404Z,10.20
2022-11-05T03:03:30.149Z,10.20
2022-11-05T03:06:25.050Z,10.20
2022-11-05T03:09:04.121Z,10.20
2022-11-05T03:11:36.923Z,10.20
2022-11-05T03:14:14.683Z,10.20
2022-11-05T03:16:48.743Z,10.20
2022-11-05T03:19:23.444Z,10.20
2022-11-05T03:21:56.378Z,10.20
2022-11-05T03:24:29.130Z,10.20
2022-11-05T03:27:01.746Z,10.20
2022-11-05T03:29:34.291Z,10.20
2022-11-05T03:32:04.232Z,10.20
2022-11-05T03:34:37.725Z,10.10
2022-11-05T03:37:07.375Z,10.10
2022-11-05T03:39:40.908Z,10.10
2022-11-05T03:42:13.344Z,10.10
2022-11-05T03:44:46.646Z,10.00
2022-11-05T03:47:23.032Z,10.10
2022-11-05T03:49:59.487Z,10.10
2022-11-05T03:52:32.951Z,10.00
2022-11-05T03:55:03.742Z,10.00
2022-11-05T03:57:35.679Z,10.00
2022-11-05T04:00:25.654Z,10.00
2022-11-05T04:02:58.390Z,9.90
2022-11-05T04:05:30.667Z,10.00
2022-11-05T04:08:16.721Z,9.90
2022-11-05T04:11:01.497Z,9.90
2022-11-05T04:13:50.363Z,9.90
2022-11-05T04:16:36.312Z,9.90
2022-11-05T04:19:26.887Z,9.90
2022-11-05T04:22:18.000Z,9.80
2022-11-05T04:24:46.668Z,9.80
2022-11-05T04:27:18.356Z,9.80
2022-11-05T04:30:06.076Z,9.80
2022-11-05T04:32:36.958Z,9.80
2022-11-05T04:35:06.611Z,9.70
2022-11-05T04:38:07.852Z,9.70
2022-11-05T04:40:38.220Z,9.70
2022-11-05T04:43:13.659Z,9.70
2022-11-05T04:46:07.941Z,9.70
2022-11-05T04:48:40.236Z,9.70
2022-11-05T04:51:08.860Z,9.70
2022-11-05T04:54:00.397Z,9.70
2022-11-05T04:56:31.821Z,9.70
2022-11-05T04:59:20.158Z,9.70
2022-11-05T05:02:06.735Z,9.70
2022-11-05T05:04:41.096Z,9.70
2022-11-05T05:07:09.571Z,9.70
2022-11-05T05:10:02.570Z,9.70
2022-11-05T05:12:33.341Z,9.70
2022-11-05T05:17:48.247Z,9.70
2022-11-05T05:21:20.795Z,9.70
2022-11-05T05:23:51.003Z,9.60
2022-11-05T05:26:23.267Z,9.70
2022-11-05T05:29:16.778Z,9.70
2022-11-05T05:31:48.788Z,9.70
2022-11-05T05:35:03.294Z,9.60
2022-11-05T05:37:31.910Z,9.70
2022-11-05T05:40:08.425Z,9.60
2022-11-05T05:42:43.073Z,9.70
2022-11-05T05:45:36.704Z,9.70
2022-11-05T05:48:05.475Z,9.70
2022-11-05T05:50:33.416Z,9.70
2022-11-05T05:53:01.448Z,9.70
2022-11-05T05:55:29.388Z,9.70
2022-11-05T05:57:58.706Z,9.70
2022-11-05T06:00:26.836Z,9.80
2022-11-05T06:02:56.884Z,9.70
2022-11-05T06:05:24.855Z,9.70
2022-11-05T06:07:57.087Z,9.70
2022-11-05T06:10:25.422Z,9.80
2022-11-05T06:12:53.386Z,9.80
2022-11-05T06:15:22.682Z,9.80
2022-11-05T06:17:50.801Z,9.80
2022-11-05T06:20:19.191Z,9.80
2022-11-05T06:23:04.225Z,9.90
2022-11-05T06:25:34.917Z,9.90
2022-11-05T06:28:05.658Z,9.90
2022-11-05T06:30:35.433Z,9.80
2022-11-05T06:33:04.663Z,9.90
2022-11-05T06:35:33.236Z,9.90
2022-11-05T06:38:02.644Z,9.90
2022-11-05T06:40:31.107Z,9.90
2022-11-05T06:42:59.139Z,9.90
2022-11-05T06:45:27.111Z,9.90
2022-11-05T06:48:00.274Z,9.90
2022-11-05T06:50:29.581Z,9.90
2022-11-05T06:52:57.892Z,9.90
2022-11-05T06:55:27.986Z,9.90
2022-11-05T06:57:56.058Z,9.80
2022-11-05T07:00:24.683Z,9.80
2022-11-05T07:02:52.866Z,9.80
2022-11-05T07:05:23.122Z,9.80
2022-11-05T07:07:51.062Z,9.80
2022-11-05T07:10:20.633Z,9.80
2022-11-05T07:12:48.570Z,9.80
2022-11-05T07:15:16.718Z,9.80
2022-11-05T07:17:44.765Z,9.80
2022-11-05T07:20:13.260Z,9.80
2022-11-05T07:22:42.523Z,9.80
2022-11-05T07:25:10.820Z,9.80
2022-11-05T07:27:40.018Z,9.80
2022-11-05T07:30:10.206Z,9.90
2022-11-05T07:32:39.563Z,9.80
2022-11-05T07:35:08.548Z,9.90
2022-11-05T07:37:44.970Z,9.90
2022-11-05T07:40:14.004Z,9.90
2022-11-05T07:42:45.740Z,9.90
2022-11-05T07:45:14.421Z,9.90
2022-11-05T07:47:48.885Z,10.00
2022-11-05T07:50:18.057Z,10.00
2022-11-05T07:52:48.061Z,10.00
2022-11-05T07:55:17.117Z,10.00
2022-11-05T07:57:45.967Z,10.00
2022-11-05T08:00:16.432Z,10.10
2022-11-05T08:02:44.902Z,10.10
2022-11-05T08:05:12.917Z,10.10
2022-11-05T08:07:40.887Z,10.10
2022-11-05T08:10:10.761Z,10.10
2022-11-05T08:12:38.689Z,10.10
2022-11-05T08:15:07.734Z,10.20
2022-11-05T08:17:35.725Z,10.20
2022-11-05T08:20:03.740Z,10.20
2022-11-05T08:22:31.637Z,10.20
2022-11-05T08:25:02.715Z,10.20
2022-11-05T08:27:35.854Z,10.20
2022-11-05T08:30:03.990Z,10.20
2022-11-05T08:32:32.019Z,10.20
2022-11-05T08:35:00.053Z,10.30
2022-11-05T08:37:28.156Z,10.30
2022-11-05T08:39:56.147Z,10.30
2022-11-05T08:42:24.084Z,10.40
2022-11-05T08:44:53.398Z,10.40
2022-11-05T08:47:21.316Z,10.50
2022-11-05T08:49:49.217Z,10.50
2022-11-05T08:52:17.281Z,10.50
2022-11-05T08:54:45.487Z,10.50
2022-11-05T08:57:13.479Z,10.50
2022-11-05T08:59:41.460Z,10.50
2022-11-05T09:02:12.870Z,10.60
2022-11-05T09:04:40.838Z,10.70
2022-11-05T09:07:09.082Z,10.70
2022-11-05T09:09:37.212Z,10.70
2022-11-05T09:12:12.225Z,10.70
2022-11-05T09:14:40.920Z,10.70
2022-11-05T09:17:18.507Z,10.80
2022-11-05T09:19:47.119Z,10.80
2022-11-05T09:22:15.930Z,10.90
2022-11-05T09:24:44.544Z,10.90
2022-11-05T09:27:14.609Z,10.90
2022-11-05T09:29:43.637Z,10.90
2022-11-05T09:32:12.227Z,11.00
2022-11-05T09:34:44.289Z,11.00
2022-11-05T09:37:12.472Z,11.00
2022-11-05T09:39:40.520Z,11.10
2022-11-05T09:42:10.392Z,11.10
2022-11-05T09:44:55.332Z,11.10
2022-11-05T09:47:28.661Z,11.20
2022-11-05T09:50:00.213Z,11.20
2022-11-05T09:52:30.927Z,11.20
2022-11-05T09:54:59.265Z,11.30
2022-11-05T09:57:29.743Z,11.20
2022-11-05T09:59:59.988Z,11.30
2022-11-05T10:02:31.846Z,11.30
2022-11-05T10:05:09.495Z,11.30
2022-11-05T10:07:44.694Z,11.40
2022-11-05T10:10:26.348Z,11.30
2022-11-05T10:12:58.388Z,11.40
2022-11-05T10:15:30.604Z,11.40
2022-11-05T10:18:03.419Z,11.50
2022-11-05T10:20:35.858Z,11.40
2022-11-05T10:23:11.340Z,11.40
2022-11-05T10:25:42.511Z,11.40
2022-11-05T10:28:16.040Z,11.50
2022-11-05T10:30:45.032Z,11.50
2022-11-05T10:33:16.135Z,11.50
2022-11-05T10:35:50.747Z,11.50
2022-11-05T10:38:22.099Z,11.60
2022-11-05T10:40:58.481Z,11.60
2022-11-05T10:43:32.748Z,11.60
2022-11-05T10:46:13.271Z,11.60
2022-11-05T10:49:00.125Z,11.70
2022-11-05T10:51:31.311Z,11.80
2022-11-05T10:54:04.434Z,11.80
2022-11-05T10:56:36.155Z,11.80
2022-11-05T10:59:11.887Z,11.80
2022-11-05T11:01:41.305Z,11.90
2022-11-05T11:04:17.641Z,11.80
2022-11-05T11:06:50.966Z,11.90
2022-11-05T11:09:22.445Z,11.90
2022-11-05T11:11:58.632Z,12.00
2022-11-05T11:14:27.566Z,12.00
2022-11-05T11:16:57.602Z,12.00
2022-11-05T11:19:28.628Z,12.00
2022-11-05T11:22:19.925Z,12.00
2022-11-05T11:24:50.435Z,12.00
2022-11-05T11:27:23.345Z,12.10
2022-11-05T11:29:57.188Z,12.10
2022-11-05T11:32:29.918Z,12.10
2022-11-05T11:34:58.757Z,12.10
2022-11-05T11:37:31.512Z,12.00
2022-11-05T11:40:05.070Z,12.10
2022-11-05T11:42:36.523Z,12.10
2022-11-05T11:45:10.462Z,12.10
2022-11-05T11:47:44.687Z,12.20
2022-11-05T11:50:35.441Z,12.10
2022-11-05T11:53:30.557Z,12.20
2022-11-05T11:56:02.159Z,12.20
2022-11-05T11:58:46.200Z,12.20
2022-11-05T12:01:53.659Z,12.20
2022-11-05T12:04:33.584Z,12.30
2022-11-05T12:07:14.234Z,12.30
2022-11-05T12:09:59.465Z,12.30
2022-11-05T12:12:34.837Z,12.20
2022-11-05T12:15:16.342Z,12.30
2022-11-05T12:17:50.976Z,12.30
2022-11-05T12:20:39.582Z,12.30
2022-11-05T12:23:27.811Z,12.30
2022-11-05T12:26:02.119Z,12.30
2022-11-05T12:29:12.274Z,12.30
2022-11-05T12:31:37.230Z,12.30
2022-11-05T12:34:21.978Z,12.40
2022-11-05T12:37:08.855Z,12.40
2022-11-05T12:39:59.992Z,12.40
2022-11-05T12:42:43.283Z,12.40
2022-11-05T12:45:23.762Z,12.50
2022-11-05T12:48:06.716Z,12.50
2022-11-05T12:50:42.836Z,12.50
2022-11-05T12:53:25.861Z,12.40
2022-11-05T12:55:55.478Z,12.50
2022-11-05T12:58:29.663Z,12.50
2022-11-05T13:01:03.484Z,12.40
2022-11-05T13:03:40.980Z,12.40
2022-11-05T13:06:13.165Z,12.40
2022-11-05T13:08:48.033Z,12.40
2022-11-05T13:11:20.910Z,12.40
2022-11-05T13:14:01.341Z,12.40
2022-11-05T13:16:34.965Z,12.40
2022-11-05T13:19:10.870Z,12.40
2022-11-05T13:21:40.207Z,12.40
2022-11-05T13:24:17.663Z,12.40
2022-11-05T13:26:51.007Z,12.50
2022-11-05T13:29:26.363Z,12.50
2022-11-05T13:32:01.321Z,12.40
2022-11-05T13:34:34.848Z,12.40
2022-11-05T13:37:25.110Z,12.40
2022-11-05T13:39:57.121Z,12.40
2022-11-05T13:42:57.351Z,12.40
2022-11-05T13:46:04.473Z,12.40
2022-11-05T13:48:49.611Z,12.40
2022-11-05T13:51:50.531Z,12.40
2022-11-05T13:54:54.407Z,12.40
2022-11-05T13:57:36.551Z,12.40
2022-11-05T14:00:12.490Z,12.40
2022-11-05T14:02:45.303Z,12.40
2022-11-05T14:05:26.024Z,12.40
2022-11-05T14:07:54.986Z,12.40
2022-11-05T14:10:31.972Z,12.40
2022-11-05T14:13:04.631Z,12.40
2022-11-05T14:15:33.068Z,12.40
2022-11-05T14:18:05.203Z,12.40
2022-11-05T14:20:44.780Z,12.40
2022-11-05T14:23:39.478Z,12.40
2022-11-05T14:26:17.065Z,12.40
2022-11-05T14:28:51.158Z,12.40
2022-11-05T14:31:47.303Z,12.40
2022-11-05T14:34:24.930Z,12.40
2022-11-05T14:37:23.974Z,12.30
2022-11-05T14:39:53.415Z,12.40
2022-11-05T14:42:25.841Z,12.40
2022-11-05T14:45:00.783Z,12.40
2022-11-05T14:47:31.948Z,12.40
2022-11-05T14:50:08.800Z,12.30
2022-11-05T14:52:38.111Z,12.30
2022-11-05T14:55:08.015Z,12.30
2022-11-05T14:58:24.774Z,12.30
2022-11-05T15:00:53.708Z,12.30
2022-11-05T15:04:12.239Z,12.30
2022-11-05T15:07:01.781Z,12.30
2022-11-05T15:09:35.267Z,12.30
2022-11-05T15:12:12.204Z,12.30
2022-11-05T15:14:50.190Z,12.30
2022-11-05T15:17:23.724Z,12.30
2022-11-05T15:19:53.607Z,12.30
2022-11-05T15:22:31.503Z,12.30
2022-11-05T15:25:01.116Z,12.20
2022-11-05T15:27:47.728Z,12.20
2022-11-05T15:30:20.597Z,12.20
2022-11-05T15:32:49.221Z,12.20
2022-11-05T15:35:39.868Z,12.20
2022-11-05T15:38:27.089Z,12.20
2022-11-05T15:41:01.008Z,12.20
2022-11-05T15:43:29.335Z,12.20
2022-11-05T15:46:08.928Z,12.10
2022-11-05T15:48:37.928Z,12.10
2022-11-05T15:51:06.708Z,12.10
2022-11-05T15:54:08.296Z,12.00
2022-11-05T15:56:30.692Z,12.00
2022-11-05T15:59:01.994Z,12.00
2022-11-05T16:01:32.395Z,12.00
2022-11-05T16:04:09.458Z,12.00
2022-11-05T16:06:40.421Z,12.00
2022-11-05T16:09:08.805Z,12.00
2022-11-05T16:11:38.087Z,12.00
2022-11-05T16:14:17.023Z,12.00
2022-11-05T16:16:46.636Z,11.90
2022-11-05T16:19:40.094Z,12.00
2022-11-05T16:22:09.125Z,11.90
2022-11-05T16:24:37.139Z,11.90
2022-11-05T16:27:07.394Z,11.90
2022-11-05T16:29:37.090Z,11.90
2022-11-05T16:32:07.422Z,11.90
2022-11-05T16:34:39.338Z,11.90
2022-11-05T16:37:09.104Z,11.90
2022-11-05T16:39:37.047Z,11.90
2022-11-05T16:42:37.347Z,11.90
2022-11-05T16:45:06.155Z,11.80
2022-11-05T16:47:34.250Z,11.90
2022-11-05T16:50:02.267Z,11.80
2022-11-05T16:52:31.956Z,11.80
2022-11-05T16:54:59.834Z,11.80
2022-11-05T16:57:32.173Z,11.80
2022-11-05T17:00:01.630Z,11.80
2022-11-05T17:02:30.684Z,11.80
2022-11-05T17:04:58.930Z,11.80
2022-11-05T17:07:26.911Z,11.80
2022-11-05T17:09:55.934Z,11.80
2022-11-05T17:12:23.961Z,11.90
2022-11-05T17:14:53.322Z,11.90
2022-11-05T17:17:21.294Z,11.90
2022-11-05T17:19:49.378Z,11.90
2022-11-05T17:22:17.406Z,11.90
2022-11-05T17:24:47.795Z,11.90
2022-11-05T17:27:16.040Z,11.90
2022-11-05T17:29:44.276Z,11.90
2022-11-05T17:32:13.568Z,11.90
2022-11-05T17:34:41.503Z,12.00
2022-11-05T17:37:09.418Z,11.90
2022-11-05T17:39:37.668Z,12.00
2022-11-05T17:42:05.744Z,12.00
2022-11-05T17:44:33.740Z,12.00
2022-11-05T17:47:01.710Z,12.00
2022-11-05T17:49:31.158Z,12.00
2022-11-05T17:51:59.128Z,11.90
2022-11-05T17:54:27.211Z,11.90
2022-11-05T17:56:55.132Z,11.90
2022-11-05T17:59:23.926Z,11.90
2022-11-05T18:01:52.077Z,11.90
2022-11-05T18:04:20.310Z,11.90
2022-11-05T18:06:49.875Z,12.00
2022-11-05T18:09:17.933Z,11.90
2022-11-05T18:11:46.106Z,11.90
2022-11-05T18:14:14.060Z,11.90
2022-11-05T18:16:42.048Z,11.90
2022-11-05T18:19:09.996Z,12.00
2022-11-05T18:21:38.184Z,11.90
2022-11-05T18:24:08.513Z,11.90
2022-11-05T18:26:36.846Z,11.90
2022-11-05T18:29:06.255Z,11.90
2022-11-05T18:31:34.266Z,11.90
2022-11-05T18:34:02.208Z,11.90
2022-11-05T18:36:31.679Z,11.90
2022-11-05T18:39:01.250Z,11.90
2022-11-05T18:41:30.921Z,11.90
2022-11-05T18:44:00.835Z,11.90
2022-11-05T18:46:56.419Z,11.90
2022-11-05T18:49:17.481Z,11.90
2022-11-05T18:51:45.511Z,11.90
2022-11-05T18:54:13.486Z,11.90
2022-11-05T18:56:46.327Z,11.90
2022-11-05T18:59:35.790Z,11.90
2022-11-05T19:02:04.159Z,11.90
2022-11-05T19:04:32.434Z,11.90
2022-11-05T19:07:04.689Z,11.90
2022-11-05T19:09:33.438Z,11.90
2022-11-05T19:12:03.236Z,11.90
2022-11-05T19:14:31.322Z,11.90
2022-11-05T19:16:59.920Z,11.90
2022-11-05T19:19:29.059Z,11.90
2022-11-05T19:21:57.660Z,11.80
2022-11-05T19:24:25.910Z,11.90
2022-11-05T19:26:53.881Z,11.90
2022-11-05T19:29:23.218Z,11.90
2022-11-05T19:31:51.202Z,11.90
2022-11-05T19:34:19.248Z,11.90
2022-11-05T19:36:47.593Z,11.80
2022-11-05T19:39:16.489Z,11.90
2022-11-05T19:41:44.521Z,11.80
2022-11-05T19:44:12.686Z,11.80
2022-11-05T19:46:42.337Z,11.90
2022-11-05T19:49:10.741Z,11.80
2022-11-05T19:51:39.095Z,11.90
2022-11-05T19:54:08.744Z,11.90
2022-11-05T19:56:38.654Z,11.80
2022-11-05T19:59:08.266Z,11.90
2022-11-05T20:01:36.921Z,11.80
2022-11-05T20:04:06.716Z,11.80
2022-11-05T20:06:38.697Z,11.80
2022-11-05T20:09:21.537Z,11.80
2022-11-05T20:11:50.860Z,11.80
2022-11-05T20:14:18.960Z,11.80
2022-11-05T20:16:47.757Z,11.80
2022-11-05T20:19:19.322Z,11.80
2022-11-05T20:21:47.380Z,11.80
2022-11-05T20:24:24.330Z,11.80
2022-11-05T20:26:54.019Z,11.80
2022-11-05T20:29:22.334Z,11.80
2022-11-05T20:31:50.760Z,11.80
2022-11-05T20:34:20.121Z,11.80
2022-11-05T20:36:48.096Z,11.80
2022-11-05T20:39:40.458Z,11.80
2022-11-05T20:42:09.569Z,11.80
2022-11-05T20:44:57.996Z,11.70
2022-11-05T20:47:28.315Z,11.70
2022-11-05T20:50:22.480Z,11.80
2022-11-05T20:52:51.979Z,11.80
2022-11-05T20:55:20.297Z,11.80
2022-11-05T20:57:49.423Z,11.80
2022-11-05T21:00:18.558Z,11.80
2022-11-05T21:03:06.907Z,11.80
2022-11-05T21:05:37.101Z,11.80
2022-11-05T21:08:07.574Z,11.80
2022-11-05T21:10:37.595Z,11.90
2022-11-05T21:13:06.391Z,11.80
2022-11-05T21:15:34.391Z,11.80
2022-11-05T21:18:02.809Z,11.90
2022-11-05T21:20:30.869Z,11.90
2022-11-05T21:23:01.532Z,11.80
2022-11-05T21:25:32.659Z,11.80
2022-11-05T21:28:01.589Z,11.80
2022-11-05T21:30:34.478Z,11.80
2022-11-05T21:33:02.919Z,11.80
2022-11-05T21:35:31.102Z,11.80
2022-11-05T21:38:03.266Z,11.80
2022-11-05T21:40:31.727Z,11.80
2022-11-05T21:42:59.978Z,11.80
2022-11-05T21:45:28.422Z,11.90
2022-11-05T21:47:57.906Z,11.90
2022-11-05T21:50:41.805Z,11.90
2022-11-05T21:53:46.621Z,11.90
2022-11-05T21:56:37.625Z,11.90
2022-11-05T21:59:24.600Z,11.90
2022-11-05T22:02:01.396Z,11.90
2022-11-05T22:04:29.999Z,11.90
2022-11-05T22:06:59.506Z,11.90
2022-11-05T22:09:49.747Z,11.80
2022-11-05T22:12:20.252Z,11.90
2022-11-05T22:15:10.606Z,11.90
2022-11-05T22:18:00.565Z,11.90
2022-11-05T22:20:55.264Z,11.90
2022-11-05T22:23:24.692Z,11.90
2022-11-05T22:26:24.856Z,11.80
2022-11-05T22:28:58.811Z,11.90
2022-11-05T22:31:35.693Z,11.90
2022-11-05T22:34:25.478Z,11.90
2022-11-05T22:36:56.081Z,11.90
2022-11-05T22:39:44.621Z,11.90
2022-11-05T22:42:21.436Z,11.90
2022-11-05T22:44:52.495Z,11.90
2022-11-05T22:47:22.532Z,11.90
2022-11-05T22:50:24.251Z,11.90
2022-11-05T22:52:53.311Z,11.90
2022-11-05T22:55:23.381Z,11.90
2022-11-05T22:58:00.041Z,11.90
2022-11-05T23:00:36.751Z,11.90
2022-11-05T23:03:05.403Z,11.90
2022-11-05T23:05:35.832Z,11.90
2022-11-05T23:08:55.154Z,11.90
2022-11-05T23:11:38.821Z,11.90
2022-11-05T23:14:13.412Z,11.80
2022-11-05T23:17:00.584Z,11.90
2022-11-05T23:19:48.014Z,11.80
2022-11-05T23:22:37.969Z,11.90
2022-11-05T23:25:12.138Z,11.80
2022-11-05T23:28:03.648Z,11.90
2022-11-05T23:31:08.503Z,11.90
2022-11-05T23:33:38.728Z,11.80
2022-11-05T23:36:39.386Z,11.80
2022-11-05T23:39:08.900Z,11.90
2022-11-05T23:41:54.549Z,11.90
2022-11-05T23:44:43.885Z,11.90
2022-11-05T23:47:30.755Z,12.00
2022-11-05T23:50:29.018Z,12.00
2022-11-05T23:52:57.386Z,12.00
2022-11-05T23:55:30.220Z,12.00
2022-11-05T23:57:58.683Z,12.00
